sensor_id;sensor_type;location;lat;lon;timestamp;P1;durP1;ratioP1;P2;durP2;ratioP2
45388;SDS011;31127;52.078;4.370;2023-07-09T00:02:28;14.70;;;9.33;;
45388;SDS011;31127;52.078;4.370;2023-07-09T00:07:26;13.33;;;9.50;;
45388;SDS011;31127;52.078;4.370;2023-07-09T00:12:22;14.30;;;9.73;;
45388;SDS011;31127;52.078;4.370;2023-07-09T00:17:36;15.07;;;10.82;;
45388;SDS011;31127;52.078;4.370;2023-07-09T00:22:32;12.43;;;8.60;;
45388;SDS011;31127;52.078;4.370;2023-07-09T00:27:29;13.25;;;8.73;;
45388;SDS011;31127;52.078;4.370;2023-07-09T00:32:27;15.88;;;10.07;;
45388;SDS011;31127;52.078;4.370;2023-07-09T00:37:23;14.50;;;10.57;;
45388;SDS011;31127;52.078;4.370;2023-07-09T00:42:43;15.88;;;8.68;;
45388;SDS011;31127;52.078;4.370;2023-07-09T00:47:59;13.85;;;9.40;;
45388;SDS011;31127;52.078;4.370;2023-07-09T00:52:57;15.43;;;9.30;;
45388;SDS011;31127;52.078;4.370;2023-07-09T00:57:54;14.18;;;10.23;;
45388;SDS011;31127;52.078;4.370;2023-07-09T01:02:52;13.32;;;8.93;;
45388;SDS011;31127;52.078;4.370;2023-07-09T01:07:47;11.82;;;9.18;;
45388;SDS011;31127;52.078;4.370;2023-07-09T01:12:46;17.33;;;11.25;;
45388;SDS011;31127;52.078;4.370;2023-07-09T01:17:44;14.73;;;9.00;;
45388;SDS011;31127;52.078;4.370;2023-07-09T01:22:40;15.20;;;9.70;;
45388;SDS011;31127;52.078;4.370;2023-07-09T01:27:39;15.77;;;10.45;;
45388;SDS011;31127;52.078;4.370;2023-07-09T01:32:36;12.48;;;9.38;;
45388;SDS011;31127;52.078;4.370;2023-07-09T01:37:33;17.38;;;11.80;;
45388;SDS011;31127;52.078;4.370;2023-07-09T01:42:29;17.60;;;11.75;;
45388;SDS011;31127;52.078;4.370;2023-07-09T01:47:44;20.45;;;12.50;;
45388;SDS011;31127;52.078;4.370;2023-07-09T01:52:40;21.40;;;10.80;;
45388;SDS011;31127;52.078;4.370;2023-07-09T01:57:57;14.48;;;10.52;;
45388;SDS011;31127;52.078;4.370;2023-07-09T02:02:52;15.95;;;10.40;;
45388;SDS011;31127;52.078;4.370;2023-07-09T02:07:50;18.23;;;11.18;;
45388;SDS011;31127;52.078;4.370;2023-07-09T02:12:45;13.52;;;10.00;;
45388;SDS011;31127;52.078;4.370;2023-07-09T02:17:41;16.67;;;11.10;;
45388;SDS011;31127;52.078;4.370;2023-07-09T02:22:37;14.45;;;10.30;;
45388;SDS011;31127;52.078;4.370;2023-07-09T02:27:33;19.65;;;10.32;;
45388;SDS011;31127;52.078;4.370;2023-07-09T02:32:48;21.38;;;11.68;;
45388;SDS011;31127;52.078;4.370;2023-07-09T02:37:46;17.00;;;10.60;;
45388;SDS011;31127;52.078;4.370;2023-07-09T02:42:41;21.15;;;10.07;;
45388;SDS011;31127;52.078;4.370;2023-07-09T02:47:37;17.50;;;12.70;;
45388;SDS011;31127;52.078;4.370;2023-07-09T02:52:32;18.77;;;10.90;;
45388;SDS011;31127;52.078;4.370;2023-07-09T02:57:28;15.20;;;11.87;;
45388;SDS011;31127;52.078;4.370;2023-07-09T03:02:23;16.17;;;11.73;;
45388;SDS011;31127;52.078;4.370;2023-07-09T03:07:19;16.33;;;12.25;;
45388;SDS011;31127;52.078;4.370;2023-07-09T03:12:15;14.20;;;10.30;;
45388;SDS011;31127;52.078;4.370;2023-07-09T03:17:10;18.00;;;13.27;;
45388;SDS011;31127;52.078;4.370;2023-07-09T03:22:25;32.53;;;12.40;;
45388;SDS011;31127;52.078;4.370;2023-07-09T03:27:21;23.70;;;11.80;;
45388;SDS011;31127;52.078;4.370;2023-07-09T03:32:16;19.93;;;12.27;;
45388;SDS011;31127;52.078;4.370;2023-07-09T03:37:11;23.43;;;15.50;;
45388;SDS011;31127;52.078;4.370;2023-07-09T03:42:07;22.35;;;16.85;;
45388;SDS011;31127;52.078;4.370;2023-07-09T03:47:03;16.67;;;11.15;;
45388;SDS011;31127;52.078;4.370;2023-07-09T03:51:58;23.48;;;16.60;;
45388;SDS011;31127;52.078;4.370;2023-07-09T03:56:54;28.52;;;17.58;;
45388;SDS011;31127;52.078;4.370;2023-07-09T04:01:49;28.47;;;20.70;;
45388;SDS011;31127;52.078;4.370;2023-07-09T04:07:05;30.55;;;24.25;;
45388;SDS011;31127;52.078;4.370;2023-07-09T04:12:00;33.22;;;26.92;;
45388;SDS011;31127;52.078;4.370;2023-07-09T04:16:58;40.20;;;29.17;;
45388;SDS011;31127;52.078;4.370;2023-07-09T04:22:14;39.33;;;31.48;;
45388;SDS011;31127;52.078;4.370;2023-07-09T04:27:09;36.10;;;27.95;;
45388;SDS011;31127;52.078;4.370;2023-07-09T04:32:06;39.00;;;30.73;;
45388;SDS011;31127;52.078;4.370;2023-07-09T04:37:21;34.85;;;24.90;;
45388;SDS011;31127;52.078;4.370;2023-07-09T04:42:17;35.75;;;22.13;;
45388;SDS011;31127;52.078;4.370;2023-07-09T04:47:13;37.25;;;24.63;;
45388;SDS011;31127;52.078;4.370;2023-07-09T04:52:08;35.67;;;27.42;;
45388;SDS011;31127;52.078;4.370;2023-07-09T04:57:06;37.40;;;30.48;;
45388;SDS011;31127;52.078;4.370;2023-07-09T05:02:02;37.95;;;23.83;;
45388;SDS011;31127;52.078;4.370;2023-07-09T05:06:57;38.80;;;31.30;;
45388;SDS011;31127;52.078;4.370;2023-07-09T05:11:53;41.10;;;29.83;;
45388;SDS011;31127;52.078;4.370;2023-07-09T05:16:48;43.10;;;35.93;;
45388;SDS011;31127;52.078;4.370;2023-07-09T05:21:44;35.43;;;27.37;;
45388;SDS011;31127;52.078;4.370;2023-07-09T05:26:39;36.27;;;26.70;;
45388;SDS011;31127;52.078;4.370;2023-07-09T05:31:55;37.78;;;29.35;;
45388;SDS011;31127;52.078;4.370;2023-07-09T05:36:50;29.17;;;23.83;;
45388;SDS011;31127;52.078;4.370;2023-07-09T05:41:45;36.90;;;28.20;;
45388;SDS011;31127;52.078;4.370;2023-07-09T05:47:01;38.78;;;29.17;;
45388;SDS011;31127;52.078;4.370;2023-07-09T05:51:56;39.40;;;30.50;;
45388;SDS011;31127;52.078;4.370;2023-07-09T05:56:52;34.50;;;27.13;;
45388;SDS011;31127;52.078;4.370;2023-07-09T06:01:47;32.03;;;25.85;;
45388;SDS011;31127;52.078;4.370;2023-07-09T06:06:43;26.33;;;21.45;;
45388;SDS011;31127;52.078;4.370;2023-07-09T06:11:39;23.20;;;17.45;;
45388;SDS011;31127;52.078;4.370;2023-07-09T06:16:34;19.73;;;14.43;;
45388;SDS011;31127;52.078;4.370;2023-07-09T06:21:30;17.65;;;13.43;;
45388;SDS011;31127;52.078;4.370;2023-07-09T06:26:25;17.07;;;11.17;;
45388;SDS011;31127;52.078;4.370;2023-07-09T06:31:21;16.98;;;12.75;;
45388;SDS011;31127;52.078;4.370;2023-07-09T06:36:17;19.17;;;14.13;;
45388;SDS011;31127;52.078;4.370;2023-07-09T06:41:13;17.98;;;12.82;;
45388;SDS011;31127;52.078;4.370;2023-07-09T06:46:10;17.20;;;11.07;;
45388;SDS011;31127;52.078;4.370;2023-07-09T06:51:05;15.23;;;10.95;;
45388;SDS011;31127;52.078;4.370;2023-07-09T06:56:01;14.30;;;9.82;;
45388;SDS011;31127;52.078;4.370;2023-07-09T07:00:56;13.07;;;9.27;;
45388;SDS011;31127;52.078;4.370;2023-07-09T07:05:52;13.77;;;9.10;;
45388;SDS011;31127;52.078;4.370;2023-07-09T07:10:56;14.18;;;8.63;;
45388;SDS011;31127;52.078;4.370;2023-07-09T07:15:57;12.77;;;7.88;;
45388;SDS011;31127;52.078;4.370;2023-07-09T07:20:53;10.20;;;7.63;;
45388;SDS011;31127;52.078;4.370;2023-07-09T07:25:48;11.40;;;7.03;;
45388;SDS011;31127;52.078;4.370;2023-07-09T07:30:44;12.57;;;7.15;;
45388;SDS011;31127;52.078;4.370;2023-07-09T07:35:39;13.10;;;8.23;;
45388;SDS011;31127;52.078;4.370;2023-07-09T07:40:35;8.85;;;6.30;;
45388;SDS011;31127;52.078;4.370;2023-07-09T07:45:30;13.10;;;7.13;;
45388;SDS011;31127;52.078;4.370;2023-07-09T07:50:26;6.97;;;5.47;;
45388;SDS011;31127;52.078;4.370;2023-07-09T07:55:21;8.63;;;5.43;;
45388;SDS011;31127;52.078;4.370;2023-07-09T08:00:17;7.27;;;5.00;;
45388;SDS011;31127;52.078;4.370;2023-07-09T08:05:15;9.85;;;4.53;;
45388;SDS011;31127;52.078;4.370;2023-07-09T08:10:11;6.10;;;4.15;;
45388;SDS011;31127;52.078;4.370;2023-07-09T08:15:07;6.95;;;3.67;;
45388;SDS011;31127;52.078;4.370;2023-07-09T08:20:22;8.77;;;4.20;;
45388;SDS011;31127;52.078;4.370;2023-07-09T08:25:18;5.22;;;3.40;;
45388;SDS011;31127;52.078;4.370;2023-07-09T08:30:34;4.47;;;2.72;;
45388;SDS011;31127;52.078;4.370;2023-07-09T08:35:49;4.97;;;3.40;;
45388;SDS011;31127;52.078;4.370;2023-07-09T08:41:30;5.85;;;3.40;;
45388;SDS011;31127;52.078;4.370;2023-07-09T08:46:07;6.03;;;3.50;;
45388;SDS011;31127;52.078;4.370;2023-07-09T08:51:10;4.78;;;2.80;;
45388;SDS011;31127;52.078;4.370;2023-07-09T08:56:10;5.22;;;3.00;;
45388;SDS011;31127;52.078;4.370;2023-07-09T09:01:06;3.83;;;2.83;;
45388;SDS011;31127;52.078;4.370;2023-07-09T09:06:16;7.90;;;3.17;;
45388;SDS011;31127;52.078;4.370;2023-07-09T09:16:28;6.65;;;3.70;;
45388;SDS011;31127;52.078;4.370;2023-07-09T09:21:26;5.97;;;3.65;;
45388;SDS011;31127;52.078;4.370;2023-07-09T09:26:33;7.07;;;2.83;;
45388;SDS011;31127;52.078;4.370;2023-07-09T09:31:30;6.60;;;3.72;;
45388;SDS011;31127;52.078;4.370;2023-07-09T09:36:26;5.28;;;3.03;;
45388;SDS011;31127;52.078;4.370;2023-07-09T09:41:25;8.52;;;3.30;;
45388;SDS011;31127;52.078;4.370;2023-07-09T09:46:26;5.97;;;3.30;;
45388;SDS011;31127;52.078;4.370;2023-07-09T09:51:25;5.45;;;3.13;;
45388;SDS011;31127;52.078;4.370;2023-07-09T09:56:28;9.50;;;4.47;;
45388;SDS011;31127;52.078;4.370;2023-07-09T10:01:28;3.78;;;2.58;;
45388;SDS011;31127;52.078;4.370;2023-07-09T10:06:45;4.57;;;3.00;;
45388;SDS011;31127;52.078;4.370;2023-07-09T10:42:50;5.50;;;3.03;;
45388;SDS011;31127;52.078;4.370;2023-07-09T10:47:48;4.00;;;2.60;;
45388;SDS011;31127;52.078;4.370;2023-07-09T10:53:07;3.40;;;2.70;;
45388;SDS011;31127;52.078;4.370;2023-07-09T10:58:05;5.15;;;2.63;;
45388;SDS011;31127;52.078;4.370;2023-07-09T11:03:13;3.75;;;2.17;;
45388;SDS011;31127;52.078;4.370;2023-07-09T11:08:11;3.80;;;2.75;;
45388;SDS011;31127;52.078;4.370;2023-07-09T11:18:35;7.30;;;3.13;;
45388;SDS011;31127;52.078;4.370;2023-07-09T11:24:04;4.60;;;2.77;;
45388;SDS011;31127;52.078;4.370;2023-07-09T11:29:16;3.50;;;2.60;;
45388;SDS011;31127;52.078;4.370;2023-07-09T11:34:17;6.13;;;3.08;;
45388;SDS011;31127;52.078;4.370;2023-07-09T11:39:41;4.38;;;2.97;;
45388;SDS011;31127;52.078;4.370;2023-07-09T11:44:32;4.97;;;3.08;;
45388;SDS011;31127;52.078;4.370;2023-07-09T11:49:32;5.60;;;3.35;;
45388;SDS011;31127;52.078;4.370;2023-07-09T11:54:33;5.07;;;2.92;;
45388;SDS011;31127;52.078;4.370;2023-07-09T11:59:28;5.93;;;2.50;;
45388;SDS011;31127;52.078;4.370;2023-07-09T12:04:44;9.60;;;5.38;;
45388;SDS011;31127;52.078;4.370;2023-07-09T12:09:46;14.60;;;5.88;;
45388;SDS011;31127;52.078;4.370;2023-07-09T12:14:44;12.70;;;4.93;;
45388;SDS011;31127;52.078;4.370;2023-07-09T12:19:40;12.88;;;5.38;;
45388;SDS011;31127;52.078;4.370;2023-07-09T12:24:55;19.55;;;5.13;;
45388;SDS011;31127;52.078;4.370;2023-07-09T12:29:56;19.70;;;7.20;;
45388;SDS011;31127;52.078;4.370;2023-07-09T12:34:52;24.55;;;6.97;;
45388;SDS011;31127;52.078;4.370;2023-07-09T12:39:47;18.58;;;7.40;;
45388;SDS011;31127;52.078;4.370;2023-07-09T12:44:44;25.92;;;10.55;;
45388;SDS011;31127;52.078;4.370;2023-07-09T12:49:42;20.58;;;11.15;;
45388;SDS011;31127;52.078;4.370;2023-07-09T12:54:38;20.40;;;11.65;;
45388;SDS011;31127;52.078;4.370;2023-07-09T12:59:55;17.67;;;10.35;;
45388;SDS011;31127;52.078;4.370;2023-07-09T13:04:57;19.83;;;10.70;;
45388;SDS011;31127;52.078;4.370;2023-07-09T13:09:55;21.00;;;10.27;;
45388;SDS011;31127;52.078;4.370;2023-07-09T13:14:54;23.27;;;10.10;;
45388;SDS011;31127;52.078;4.370;2023-07-09T13:19:50;19.80;;;10.70;;
45388;SDS011;31127;52.078;4.370;2023-07-09T13:24:45;17.80;;;9.98;;
45388;SDS011;31127;52.078;4.370;2023-07-09T13:29:41;22.25;;;8.98;;
45388;SDS011;31127;52.078;4.370;2023-07-09T13:34:37;16.05;;;9.93;;
45388;SDS011;31127;52.078;4.370;2023-07-09T13:39:34;15.30;;;7.05;;
45388;SDS011;31127;52.078;4.370;2023-07-09T13:44:34;13.80;;;6.47;;
45388;SDS011;31127;52.078;4.370;2023-07-09T13:49:31;9.85;;;5.47;;
45388;SDS011;31127;52.078;4.370;2023-07-09T13:54:28;9.73;;;5.43;;
45388;SDS011;31127;52.078;4.370;2023-07-09T13:59:27;11.60;;;5.18;;
45388;SDS011;31127;52.078;4.370;2023-07-09T14:04:23;15.27;;;5.18;;
45388;SDS011;31127;52.078;4.370;2023-07-09T14:09:19;11.13;;;5.20;;
45388;SDS011;31127;52.078;4.370;2023-07-09T14:19:19;7.22;;;4.03;;
45388;SDS011;31127;52.078;4.370;2023-07-09T14:24:20;9.02;;;4.90;;
45388;SDS011;31127;52.078;4.370;2023-07-09T14:29:15;6.32;;;3.70;;
45388;SDS011;31127;52.078;4.370;2023-07-09T14:34:34;9.13;;;3.65;;
45388;SDS011;31127;52.078;4.370;2023-07-09T14:39:49;7.00;;;4.32;;
45388;SDS011;31127;52.078;4.370;2023-07-09T14:45:06;8.32;;;3.72;;
45388;SDS011;31127;52.078;4.370;2023-07-09T14:50:10;8.98;;;3.40;;
45388;SDS011;31127;52.078;4.370;2023-07-09T14:55:07;12.25;;;4.43;;
45388;SDS011;31127;52.078;4.370;2023-07-09T15:00:04;8.25;;;4.20;;
45388;SDS011;31127;52.078;4.370;2023-07-09T15:05:00;9.55;;;4.85;;
45388;SDS011;31127;52.078;4.370;2023-07-09T15:09:56;7.88;;;5.25;;
45388;SDS011;31127;52.078;4.370;2023-07-09T15:14:53;10.38;;;5.68;;
45388;SDS011;31127;52.078;4.370;2023-07-09T15:19:50;7.93;;;3.22;;
45388;SDS011;31127;52.078;4.370;2023-07-09T15:24:45;5.67;;;2.63;;
45388;SDS011;31127;52.078;4.370;2023-07-09T15:29:41;4.30;;;2.63;;
45388;SDS011;31127;52.078;4.370;2023-07-09T15:34:37;6.25;;;2.80;;
45388;SDS011;31127;52.078;4.370;2023-07-09T15:39:32;9.40;;;3.73;;
45388;SDS011;31127;52.078;4.370;2023-07-09T15:44:27;8.90;;;2.70;;
45388;SDS011;31127;52.078;4.370;2023-07-09T15:49:23;10.07;;;3.33;;
45388;SDS011;31127;52.078;4.370;2023-07-09T15:54:19;8.35;;;3.20;;
45388;SDS011;31127;52.078;4.370;2023-07-09T15:59:31;9.60;;;4.07;;
45388;SDS011;31127;52.078;4.370;2023-07-09T16:09:22;7.25;;;4.10;;
45388;SDS011;31127;52.078;4.370;2023-07-09T16:14:22;10.75;;;3.20;;
45388;SDS011;31127;52.078;4.370;2023-07-09T16:19:37;6.28;;;3.50;;
45388;SDS011;31127;52.078;4.370;2023-07-09T16:24:37;5.43;;;3.00;;
45388;SDS011;31127;52.078;4.370;2023-07-09T16:29:33;7.50;;;2.90;;
45388;SDS011;31127;52.078;4.370;2023-07-09T16:34:29;6.18;;;2.55;;
45388;SDS011;31127;52.078;4.370;2023-07-09T16:39:45;6.38;;;3.15;;
45388;SDS011;31127;52.078;4.370;2023-07-09T16:44:40;5.90;;;2.53;;
45388;SDS011;31127;52.078;4.370;2023-07-09T16:49:56;6.47;;;2.72;;
45388;SDS011;31127;52.078;4.370;2023-07-09T16:54:54;6.87;;;2.30;;
45388;SDS011;31127;52.078;4.370;2023-07-09T16:59:50;5.90;;;2.13;;
45388;SDS011;31127;52.078;4.370;2023-07-09T17:04:49;9.52;;;2.53;;
45388;SDS011;31127;52.078;4.370;2023-07-09T17:10:04;7.65;;;3.55;;
45388;SDS011;31127;52.078;4.370;2023-07-09T17:15:00;5.32;;;2.33;;
45388;SDS011;31127;52.078;4.370;2023-07-09T17:20:02;8.10;;;3.65;;
45388;SDS011;31127;52.078;4.370;2023-07-09T17:24:57;8.38;;;3.30;;
45388;SDS011;31127;52.078;4.370;2023-07-09T17:30:13;7.25;;;3.10;;
45388;SDS011;31127;52.078;4.370;2023-07-09T17:35:14;9.32;;;2.80;;
45388;SDS011;31127;52.078;4.370;2023-07-09T17:40:17;8.07;;;3.65;;
45388;SDS011;31127;52.078;4.370;2023-07-09T17:45:14;7.93;;;3.20;;
45388;SDS011;31127;52.078;4.370;2023-07-09T17:50:16;12.20;;;3.15;;
45388;SDS011;31127;52.078;4.370;2023-07-09T17:55:12;6.28;;;3.55;;
45388;SDS011;31127;52.078;4.370;2023-07-09T18:00:41;6.70;;;3.60;;
45388;SDS011;31127;52.078;4.370;2023-07-09T18:05:50;6.38;;;2.58;;
45388;SDS011;31127;52.078;4.370;2023-07-09T18:10:45;13.27;;;7.95;;
45388;SDS011;31127;52.078;4.370;2023-07-09T18:15:41;6.68;;;3.03;;
45388;SDS011;31127;52.078;4.370;2023-07-09T18:20:38;11.13;;;2.83;;
45388;SDS011;31127;52.078;4.370;2023-07-09T18:25:54;3.47;;;2.10;;
45388;SDS011;31127;52.078;4.370;2023-07-09T18:30:49;9.60;;;2.83;;
45388;SDS011;31127;52.078;4.370;2023-07-09T18:35:45;9.27;;;2.80;;
45388;SDS011;31127;52.078;4.370;2023-07-09T18:40:42;8.55;;;2.97;;
45388;SDS011;31127;52.078;4.370;2023-07-09T18:45:38;7.45;;;3.22;;
45388;SDS011;31127;52.078;4.370;2023-07-09T18:50:34;6.38;;;2.92;;
45388;SDS011;31127;52.078;4.370;2023-07-09T18:55:49;5.63;;;2.90;;
45388;SDS011;31127;52.078;4.370;2023-07-09T19:00:45;7.32;;;2.40;;
45388;SDS011;31127;52.078;4.370;2023-07-09T19:05:45;10.18;;;3.72;;
45388;SDS011;31127;52.078;4.370;2023-07-09T19:10:40;11.50;;;3.38;;
45388;SDS011;31127;52.078;4.370;2023-07-09T19:15:56;8.70;;;2.97;;
45388;SDS011;31127;52.078;4.370;2023-07-09T19:20:54;6.93;;;2.58;;
45388;SDS011;31127;52.078;4.370;2023-07-09T19:25:50;7.43;;;2.85;;
45388;SDS011;31127;52.078;4.370;2023-07-09T19:30:46;8.68;;;3.38;;
45388;SDS011;31127;52.078;4.370;2023-07-09T19:35:42;7.65;;;3.58;;
45388;SDS011;31127;52.078;4.370;2023-07-09T19:40:37;10.98;;;3.03;;
45388;SDS011;31127;52.078;4.370;2023-07-09T19:45:53;9.73;;;2.92;;
45388;SDS011;31127;52.078;4.370;2023-07-09T19:50:48;8.68;;;2.20;;
45388;SDS011;31127;52.078;4.370;2023-07-09T19:55:45;8.57;;;3.20;;
45388;SDS011;31127;52.078;4.370;2023-07-09T20:00:40;7.60;;;3.20;;
45388;SDS011;31127;52.078;4.370;2023-07-09T20:05:36;10.02;;;3.60;;
45388;SDS011;31127;52.078;4.370;2023-07-09T20:10:31;5.70;;;2.53;;
45388;SDS011;31127;52.078;4.370;2023-07-09T20:15:39;7.00;;;2.25;;
45388;SDS011;31127;52.078;4.370;2023-07-09T20:20:35;6.65;;;2.50;;
45388;SDS011;31127;52.078;4.370;2023-07-09T20:25:31;9.32;;;2.17;;
45388;SDS011;31127;52.078;4.370;2023-07-09T20:30:27;9.85;;;3.80;;
45388;SDS011;31127;52.078;4.370;2023-07-09T20:35:22;5.75;;;2.67;;
45388;SDS011;31127;52.078;4.370;2023-07-09T20:40:21;6.43;;;2.60;;
45388;SDS011;31127;52.078;4.370;2023-07-09T20:45:21;5.68;;;1.90;;
45388;SDS011;31127;52.078;4.370;2023-07-09T20:50:17;9.52;;;2.75;;
45388;SDS011;31127;52.078;4.370;2023-07-09T20:55:14;5.15;;;2.55;;
45388;SDS011;31127;52.078;4.370;2023-07-09T21:00:19;6.53;;;3.63;;
45388;SDS011;31127;52.078;4.370;2023-07-09T21:05:34;5.28;;;2.58;;
45388;SDS011;31127;52.078;4.370;2023-07-09T21:10:30;8.53;;;3.27;;
45388;SDS011;31127;52.078;4.370;2023-07-09T21:15:51;11.30;;;3.35;;
45388;SDS011;31127;52.078;4.370;2023-07-09T21:20:46;9.95;;;3.05;;
45388;SDS011;31127;52.078;4.370;2023-07-09T21:26:02;9.63;;;2.78;;
45388;SDS011;31127;52.078;4.370;2023-07-09T21:30:58;6.80;;;2.50;;
45388;SDS011;31127;52.078;4.370;2023-07-09T21:35:55;6.47;;;2.47;;
45388;SDS011;31127;52.078;4.370;2023-07-09T21:40:53;10.63;;;2.60;;
45388;SDS011;31127;52.078;4.370;2023-07-09T21:45:50;6.05;;;3.08;;
45388;SDS011;31127;52.078;4.370;2023-07-09T21:50:48;10.05;;;3.80;;
45388;SDS011;31127;52.078;4.370;2023-07-09T21:56:03;7.75;;;2.75;;
45388;SDS011;31127;52.078;4.370;2023-07-09T22:00:59;12.82;;;3.42;;
45388;SDS011;31127;52.078;4.370;2023-07-09T22:05:54;11.20;;;2.77;;
45388;SDS011;31127;52.078;4.370;2023-07-09T22:10:50;9.75;;;2.92;;
45388;SDS011;31127;52.078;4.370;2023-07-09T22:15:50;10.20;;;3.60;;
45388;SDS011;31127;52.078;4.370;2023-07-09T22:21:07;8.95;;;4.32;;
45388;SDS011;31127;52.078;4.370;2023-07-09T22:26:03;7.30;;;3.35;;
45388;SDS011;31127;52.078;4.370;2023-07-09T22:31:19;7.35;;;3.47;;
45388;SDS011;31127;52.078;4.370;2023-07-09T22:36:16;5.95;;;2.88;;
45388;SDS011;31127;52.078;4.370;2023-07-09T22:41:15;7.70;;;2.95;;
45388;SDS011;31127;52.078;4.370;2023-07-09T22:46:13;9.73;;;3.28;;
45388;SDS011;31127;52.078;4.370;2023-07-09T22:51:10;8.73;;;3.05;;
45388;SDS011;31127;52.078;4.370;2023-07-09T22:56:06;7.43;;;3.80;;
45388;SDS011;31127;52.078;4.370;2023-07-09T23:01:08;6.63;;;2.92;;
45388;SDS011;31127;52.078;4.370;2023-07-09T23:06:25;7.03;;;3.07;;
45388;SDS011;31127;52.078;4.370;2023-07-09T23:11:41;4.45;;;2.40;;
45388;SDS011;31127;52.078;4.370;2023-07-09T23:16:37;8.68;;;3.40;;
45388;SDS011;31127;52.078;4.370;2023-07-09T23:21:32;6.63;;;2.60;;
45388;SDS011;31127;52.078;4.370;2023-07-09T23:26:32;7.30;;;3.10;;
45388;SDS011;31127;52.078;4.370;2023-07-09T23:31:48;8.85;;;3.95;;
45388;SDS011;31127;52.078;4.370;2023-07-09T23:37:04;6.00;;;2.92;;
45388;SDS011;31127;52.078;4.370;2023-07-09T23:42:19;9.20;;;3.10;;
45388;SDS011;31127;52.078;4.370;2023-07-09T23:47:35;5.35;;;2.47;;
45388;SDS011;31127;52.078;4.370;2023-07-09T23:52:31;7.30;;;3.08;;
45388;SDS011;31127;52.078;4.370;2023-07-09T23:57:26;9.10;;;3.83;;
